Baneberry, Tennessee
Current Conditions -  °F | °C
As of 4:35 PM on Thursday 18 Dec 2014 (Local Time) from KMOR Reporting Station
Overcast Overcast  
Wind Chill: 40°   Ceiling: 4800
Heat Index: 43°   Visibility: 10mi
Dew Point: 30°   Wind: 5mph
Humidity: 61%   Direction: 320°NW
Pressure: 30.15"   Gusts: NA
Location:  36.0865°N, 83.3026°W
Report Text: KMOR 182135Z AUTO 32004KT 10SM OVC048 06/M01 A3015 RMK
Loading
Personal Weather Stations






























Interactive Weather Map New forecast layout! Learn more

10-Day Weather Forecast

Advertisements
Track Severe Weather on mobile